sensor_id;sensor_type;location;lat;lon;timestamp;pressure;altitude;pressure_sealevel;temperature;humidity
50123;BME280;36021;48.670;6.184;2022-09-12T00:02:06;99109.25;;;16.61;100.00
50123;BME280;36021;48.670;6.184;2022-09-12T00:04:32;99103.16;;;16.68;100.00
50123;BME280;36021;48.670;6.184;2022-09-12T00:06:58;99102.81;;;16.70;100.00
50123;BME280;36021;48.670;6.184;2022-09-12T00:09:23;99106.56;;;16.74;100.00
50123;BME280;36021;48.670;6.184;2022-09-12T00:11:49;99095.13;;;16.75;100.00
50123;BME280;36021;48.670;6.184;2022-09-12T00:14:15;99093.13;;;16.76;100.00
50123;BME280;36021;48.670;6.184;2022-09-12T00:16:41;99092.34;;;16.75;100.00
50123;BME280;36021;48.670;6.184;2022-09-12T00:19:08;99099.81;;;16.83;100.00
50123;BME280;36021;48.670;6.184;2022-09-12T00:21:34;99093.63;;;16.78;100.00
50123;BME280;36021;48.670;6.184;2022-09-12T00:24:00;99092.47;;;16.79;100.00
50123;BME280;36021;48.670;6.184;2022-09-12T00:26:26;99091.31;;;16.80;100.00
50123;BME280;36021;48.670;6.184;2022-09-12T00:28:53;99078.06;;;16.77;100.00
50123;BME280;36021;48.670;6.184;2022-09-12T00:31:20;99075.50;;;16.72;100.00
50123;BME280;36021;48.670;6.184;2022-09-12T00:33:46;99082.34;;;16.74;100.00
50123;BME280;36021;48.670;6.184;2022-09-12T00:36:14;99076.78;;;16.74;100.00
50123;BME280;36021;48.670;6.184;2022-09-12T00:38:41;99080.38;;;16.75;100.00
50123;BME280;36021;48.670;6.184;2022-09-12T00:41:09;99070.88;;;16.76;100.00
50123;BME280;36021;48.670;6.184;2022-09-12T00:43:38;99076.44;;;16.76;100.00
50123;BME280;36021;48.670;6.184;2022-09-12T00:46:05;99070.06;;;16.75;100.00
50123;BME280;36021;48.670;6.184;2022-09-12T00:48:41;99064.88;;;16.65;100.00
50123;BME280;36021;48.670;6.184;2022-09-12T00:51:08;99057.72;;;16.55;100.00
50123;BME280;36021;48.670;6.184;2022-09-12T00:53:34;99059.81;;;16.50;100.00
50123;BME280;36021;48.670;6.184;2022-09-12T00:56:00;99056.88;;;16.46;100.00
50123;BME280;36021;48.670;6.184;2022-09-12T00:58:27;99058.41;;;16.35;100.00
50123;BME280;36021;48.670;6.184;2022-09-12T01:00:54;99058.50;;;16.47;100.00
50123;BME280;36021;48.670;6.184;2022-09-12T01:03:20;99057.03;;;16.50;100.00
50123;BME280;36021;48.670;6.184;2022-09-12T01:05:51;99053.09;;;16.51;100.00
50123;BME280;36021;48.670;6.184;2022-09-12T01:08:19;99054.75;;;16.52;100.00
50123;BME280;36021;48.670;6.184;2022-09-12T01:10:46;99054.59;;;16.40;100.00
50123;BME280;36021;48.670;6.184;2022-09-12T01:13:12;99051.81;;;16.40;100.00
50123;BME280;36021;48.670;6.184;2022-09-12T01:15:39;99045.81;;;16.29;100.00
50123;BME280;36021;48.670;6.184;2022-09-12T01:31:20;99045.69;;;16.17;100.00
50123;BME280;36021;48.670;6.184;2022-09-12T01:42:06;99040.00;;;15.88;100.00
50123;BME280;36021;48.670;6.184;2022-09-12T01:44:48;99040.66;;;16.02;100.00
50123;BME280;36021;48.670;6.184;2022-09-12T01:47:21;99033.63;;;15.96;100.00
50123;BME280;36021;48.670;6.184;2022-09-12T01:49:57;99035.75;;;15.99;100.00
50123;BME280;36021;48.670;6.184;2022-09-12T01:52:27;99029.88;;;15.92;100.00
50123;BME280;36021;48.670;6.184;2022-09-12T01:57:36;99029.41;;;15.90;100.00
50123;BME280;36021;48.670;6.184;2022-09-12T02:00:05;99027.28;;;15.87;100.00
50123;BME280;36021;48.670;6.184;2022-09-12T02:02:39;99033.84;;;15.74;100.00
50123;BME280;36021;48.670;6.184;2022-09-12T02:05:09;99024.84;;;15.77;100.00
50123;BME280;36021;48.670;6.184;2022-09-12T02:07:37;99030.56;;;15.80;100.00
50123;BME280;36021;48.670;6.184;2022-09-12T02:12:35;99025.47;;;15.82;100.00
50123;BME280;36021;48.670;6.184;2022-09-12T02:15:03;99019.09;;;15.82;100.00
50123;BME280;36021;48.670;6.184;2022-09-12T02:17:31;99032.03;;;15.69;100.00
50123;BME280;36021;48.670;6.184;2022-09-12T02:20:02;99025.97;;;15.58;100.00
50123;BME280;36021;48.670;6.184;2022-09-12T02:22:30;99028.28;;;15.56;100.00
50123;BME280;36021;48.670;6.184;2022-09-12T02:24:58;99026.97;;;15.62;100.00
50123;BME280;36021;48.670;6.184;2022-09-12T02:27:29;99028.75;;;15.58;100.00
50123;BME280;36021;48.670;6.184;2022-09-12T02:29:56;99019.44;;;15.63;100.00
50123;BME280;36021;48.670;6.184;2022-09-12T02:40:20;99020.09;;;15.51;100.00
50123;BME280;36021;48.670;6.184;2022-09-12T02:42:47;99016.31;;;15.30;100.00
50123;BME280;36021;48.670;6.184;2022-09-12T02:45:13;99013.38;;;15.18;100.00
50123;BME280;36021;48.670;6.184;2022-09-12T02:47:40;99013.69;;;15.08;100.00
50123;BME280;36021;48.670;6.184;2022-09-12T02:50:08;99016.47;;;15.08;100.00
50123;BME280;36021;48.670;6.184;2022-09-12T02:52:34;99012.69;;;15.04;100.00
50123;BME280;36021;48.670;6.184;2022-09-12T02:55:01;99010.59;;;15.18;100.00
50123;BME280;36021;48.670;6.184;2022-09-12T02:57:27;99014.84;;;15.24;100.00
50123;BME280;36021;48.670;6.184;2022-09-12T02:59:54;99009.63;;;15.31;100.00
50123;BME280;36021;48.670;6.184;2022-09-12T03:10:05;98992.97;;;15.31;100.00
50123;BME280;36021;48.670;6.184;2022-09-12T03:20:52;98994.75;;;15.36;100.00
50123;BME280;36021;48.670;6.184;2022-09-12T03:23:24;98989.19;;;15.27;100.00
50123;BME280;36021;48.670;6.184;2022-09-12T03:25:56;98988.41;;;15.18;100.00
50123;BME280;36021;48.670;6.184;2022-09-12T03:28:23;98991.28;;;14.96;100.00
50123;BME280;36021;48.670;6.184;2022-09-12T03:30:49;98978.06;;;14.84;100.00
50123;BME280;36021;48.670;6.184;2022-09-12T03:33:20;98995.00;;;14.74;100.00
50123;BME280;36021;48.670;6.184;2022-09-12T03:35:48;98999.09;;;14.77;100.00
50123;BME280;36021;48.670;6.184;2022-09-12T03:38:15;98990.75;;;14.77;100.00
50123;BME280;36021;48.670;6.184;2022-09-12T03:40:41;98985.72;;;14.79;100.00
50123;BME280;36021;48.670;6.184;2022-09-12T03:43:07;98984.91;;;14.78;100.00
50123;BME280;36021;48.670;6.184;2022-09-12T03:45:33;98985.91;;;14.91;100.00
50123;BME280;36021;48.670;6.184;2022-09-12T03:47:58;98978.72;;;14.90;100.00
50123;BME280;36021;48.670;6.184;2022-09-12T03:50:24;98977.41;;;14.87;100.00
50123;BME280;36021;48.670;6.184;2022-09-12T03:52:50;98986.72;;;14.91;100.00
50123;BME280;36021;48.670;6.184;2022-09-12T03:55:15;98979.06;;;14.88;100.00
50123;BME280;36021;48.670;6.184;2022-09-12T03:57:41;98974.78;;;14.82;100.00
50123;BME280;36021;48.670;6.184;2022-09-12T04:00:07;98976.88;;;14.77;100.00
50123;BME280;36021;48.670;6.184;2022-09-12T04:02:38;98980.13;;;14.62;100.00
50123;BME280;36021;48.670;6.184;2022-09-12T04:05:03;98976.72;;;14.73;100.00
50123;BME280;36021;48.670;6.184;2022-09-12T04:07:29;98973.16;;;14.81;100.00
50123;BME280;36021;48.670;6.184;2022-09-12T04:09:56;98971.03;;;14.87;100.00
50123;BME280;36021;48.670;6.184;2022-09-12T04:12:22;98972.34;;;14.89;100.00
50123;BME280;36021;48.670;6.184;2022-09-12T04:14:48;98980.84;;;14.93;100.00
50123;BME280;36021;48.670;6.184;2022-09-12T04:17:13;98969.72;;;14.93;100.00
50123;BME280;36021;48.670;6.184;2022-09-12T04:19:39;98969.25;;;14.91;100.00
50123;BME280;36021;48.670;6.184;2022-09-12T04:22:04;98968.25;;;14.87;100.00
50123;BME280;36021;48.670;6.184;2022-09-12T04:24:30;98968.09;;;14.75;100.00
50123;BME280;36021;48.670;6.184;2022-09-12T04:26:55;98967.88;;;14.54;100.00
50123;BME280;36021;48.670;6.184;2022-09-12T04:29:21;98972.13;;;14.60;100.00
50123;BME280;36021;48.670;6.184;2022-09-12T04:31:47;98974.28;;;14.72;100.00
50123;BME280;36021;48.670;6.184;2022-09-12T04:34:13;98982.84;;;14.53;100.00
50123;BME280;36021;48.670;6.184;2022-09-12T04:36:39;98976.25;;;14.32;100.00
50123;BME280;36021;48.670;6.184;2022-09-12T04:39:05;98976.72;;;14.25;100.00
50123;BME280;36021;48.670;6.184;2022-09-12T04:41:33;98977.72;;;14.29;100.00
50123;BME280;36021;48.670;6.184;2022-09-12T04:44:00;98982.53;;;14.46;100.00
50123;BME280;36021;48.670;6.184;2022-09-12T04:46:27;98978.44;;;14.43;100.00
50123;BME280;36021;48.670;6.184;2022-09-12T04:48:53;98980.88;;;14.36;100.00
50123;BME280;36021;48.670;6.184;2022-09-12T04:51:19;98977.38;;;14.31;100.00
50123;BME280;36021;48.670;6.184;2022-09-12T04:53:49;98979.66;;;14.29;100.00
50123;BME280;36021;48.670;6.184;2022-09-12T04:56:15;98986.63;;;14.18;100.00
50123;BME280;36021;48.670;6.184;2022-09-12T04:58:40;98986.94;;;14.16;100.00
50123;BME280;36021;48.670;6.184;2022-09-12T05:01:06;98972.44;;;14.19;100.00
50123;BME280;36021;48.670;6.184;2022-09-12T05:03:33;98986.41;;;14.05;100.00
50123;BME280;36021;48.670;6.184;2022-09-12T05:06:00;98989.63;;;13.99;100.00
50123;BME280;36021;48.670;6.184;2022-09-12T05:08:28;98994.72;;;14.05;100.00
50123;BME280;36021;48.670;6.184;2022-09-12T05:10:56;98998.16;;;14.11;100.00
50123;BME280;36021;48.670;6.184;2022-09-12T05:13:25;98986.25;;;14.10;100.00
50123;BME280;36021;48.670;6.184;2022-09-12T05:15:55;98990.09;;;13.92;100.00
50123;BME280;36021;48.670;6.184;2022-09-12T05:18:20;98989.53;;;13.82;100.00
50123;BME280;36021;48.670;6.184;2022-09-12T05:20:46;98990.16;;;13.79;100.00
50123;BME280;36021;48.670;6.184;2022-09-12T05:23:11;98995.31;;;13.72;100.00
50123;BME280;36021;48.670;6.184;2022-09-12T05:25:37;99001.75;;;13.58;100.00
50123;BME280;36021;48.670;6.184;2022-09-12T05:28:04;99000.88;;;13.49;100.00
50123;BME280;36021;48.670;6.184;2022-09-12T05:30:30;99002.44;;;13.42;100.00
50123;BME280;36021;48.670;6.184;2022-09-12T05:32:56;99009.44;;;13.39;100.00
50123;BME280;36021;48.670;6.184;2022-09-12T05:35:27;99012.59;;;13.46;100.00
50123;BME280;36021;48.670;6.184;2022-09-12T05:37:52;99010.63;;;13.47;100.00
50123;BME280;36021;48.670;6.184;2022-09-12T05:40:18;99013.06;;;13.48;100.00
50123;BME280;36021;48.670;6.184;2022-09-12T05:42:45;99012.44;;;13.51;100.00
50123;BME280;36021;48.670;6.184;2022-09-12T05:45:11;99017.88;;;13.56;100.00
50123;BME280;36021;48.670;6.184;2022-09-12T05:47:38;99018.56;;;13.62;100.00
50123;BME280;36021;48.670;6.184;2022-09-12T05:50:04;99023.28;;;13.62;100.00
50123;BME280;36021;48.670;6.184;2022-09-12T05:52:35;99019.38;;;13.63;100.00
50123;BME280;36021;48.670;6.184;2022-09-12T05:55:01;99023.09;;;13.58;100.00
50123;BME280;36021;48.670;6.184;2022-09-12T05:57:27;99025.94;;;13.67;100.00
50123;BME280;36021;48.670;6.184;2022-09-12T05:59:53;99028.56;;;13.72;100.00
50123;BME280;36021;48.670;6.184;2022-09-12T06:02:19;99021.41;;;13.71;100.00
50123;BME280;36021;48.670;6.184;2022-09-12T06:04:44;99024.28;;;13.66;100.00
50123;BME280;36021;48.670;6.184;2022-09-12T06:07:10;99029.75;;;13.79;100.00
50123;BME280;36021;48.670;6.184;2022-09-12T06:09:37;99023.22;;;13.75;100.00
50123;BME280;36021;48.670;6.184;2022-09-12T06:12:03;99021.25;;;13.76;100.00
50123;BME280;36021;48.670;6.184;2022-09-12T06:14:28;99020.81;;;13.82;100.00
50123;BME280;36021;48.670;6.184;2022-09-12T06:16:54;99023.13;;;13.89;100.00
50123;BME280;36021;48.670;6.184;2022-09-12T06:19:20;99021.50;;;13.88;100.00
50123;BME280;36021;48.670;6.184;2022-09-12T06:21:46;99017.78;;;13.92;100.00
50123;BME280;36021;48.670;6.184;2022-09-12T06:24:14;99013.94;;;14.02;100.00
50123;BME280;36021;48.670;6.184;2022-09-12T06:26:39;99009.50;;;14.01;100.00
50123;BME280;36021;48.670;6.184;2022-09-12T06:29:09;99014.88;;;13.97;100.00
50123;BME280;36021;48.670;6.184;2022-09-12T06:31:36;99005.81;;;14.05;100.00
50123;BME280;36021;48.670;6.184;2022-09-12T06:34:05;99009.06;;;14.07;100.00
50123;BME280;36021;48.670;6.184;2022-09-12T06:36:32;99003.06;;;14.14;100.00
50123;BME280;36021;48.670;6.184;2022-09-12T06:38:59;99013.06;;;14.24;100.00
50123;BME280;36021;48.670;6.184;2022-09-12T06:41:25;99016.47;;;14.21;100.00
50123;BME280;36021;48.670;6.184;2022-09-12T06:43:51;99010.75;;;14.17;100.00
50123;BME280;36021;48.670;6.184;2022-09-12T06:46:17;98999.16;;;14.15;100.00
50123;BME280;36021;48.670;6.184;2022-09-12T06:48:43;99007.97;;;14.17;100.00
50123;BME280;36021;48.670;6.184;2022-09-12T06:51:09;99006.19;;;14.21;100.00
50123;BME280;36021;48.670;6.184;2022-09-12T06:53:35;99018.25;;;14.17;100.00
50123;BME280;36021;48.670;6.184;2022-09-12T06:56:02;99011.63;;;14.26;100.00
50123;BME280;36021;48.670;6.184;2022-09-12T06:58:28;99010.34;;;14.32;100.00
50123;BME280;36021;48.670;6.184;2022-09-12T07:01:04;99010.41;;;14.41;100.00
50123;BME280;36021;48.670;6.184;2022-09-12T07:03:30;99007.44;;;14.37;100.00
50123;BME280;36021;48.670;6.184;2022-09-12T07:05:55;99011.69;;;14.43;100.00
50123;BME280;36021;48.670;6.184;2022-09-12T07:08:21;99003.91;;;14.45;100.00
50123;BME280;36021;48.670;6.184;2022-09-12T07:10:49;99000.59;;;14.43;100.00
50123;BME280;36021;48.670;6.184;2022-09-12T07:13:14;99007.88;;;14.62;100.00
50123;BME280;36021;48.670;6.184;2022-09-12T07:15:39;99008.22;;;14.69;100.00
50123;BME280;36021;48.670;6.184;2022-09-12T07:18:05;99005.63;;;14.81;100.00
50123;BME280;36021;48.670;6.184;2022-09-12T07:20:30;99009.25;;;14.90;100.00
50123;BME280;36021;48.670;6.184;2022-09-12T07:23:01;99005.16;;;14.96;100.00
50123;BME280;36021;48.670;6.184;2022-09-12T07:25:27;99007.56;;;14.72;100.00
50123;BME280;36021;48.670;6.184;2022-09-12T07:27:54;99016.44;;;14.91;100.00
50123;BME280;36021;48.670;6.184;2022-09-12T07:30:20;99012.53;;;15.09;100.00
50123;BME280;36021;48.670;6.184;2022-09-12T07:32:50;99013.53;;;15.13;100.00
50123;BME280;36021;48.670;6.184;2022-09-12T07:35:17;99012.38;;;15.23;100.00
50123;BME280;36021;48.670;6.184;2022-09-12T07:37:42;99013.03;;;15.28;100.00
50123;BME280;36021;48.670;6.184;2022-09-12T07:40:08;99009.63;;;15.48;100.00
50123;BME280;36021;48.670;6.184;2022-09-12T07:42:34;99005.06;;;15.52;100.00
50123;BME280;36021;48.670;6.184;2022-09-12T07:45:00;99012.59;;;15.52;100.00
50123;BME280;36021;48.670;6.184;2022-09-12T07:47:25;99009.63;;;15.66;100.00
50123;BME280;36021;48.670;6.184;2022-09-12T07:49:51;99007.84;;;15.70;100.00
50123;BME280;36021;48.670;6.184;2022-09-12T07:52:17;99010.41;;;15.92;100.00
50123;BME280;36021;48.670;6.184;2022-09-12T07:54:43;99002.88;;;16.01;100.00
50123;BME280;36021;48.670;6.184;2022-09-12T07:57:08;98999.56;;;16.07;100.00
50123;BME280;36021;48.670;6.184;2022-09-12T07:59:34;99002.16;;;16.21;100.00
50123;BME280;36021;48.670;6.184;2022-09-12T08:01:59;99003.75;;;16.31;100.00
50123;BME280;36021;48.670;6.184;2022-09-12T08:04:25;99002.19;;;16.50;100.00
50123;BME280;36021;48.670;6.184;2022-09-12T08:06:51;99001.47;;;16.71;100.00
50123;BME280;36021;48.670;6.184;2022-09-12T08:09:17;99002.81;;;16.94;100.00
50123;BME280;36021;48.670;6.184;2022-09-12T08:11:43;98996.75;;;17.21;100.00
50123;BME280;36021;48.670;6.184;2022-09-12T08:14:08;98992.81;;;18.65;100.00
50123;BME280;36021;48.670;6.184;2022-09-12T08:16:34;98957.53;;;21.53;100.00
50123;BME280;36021;48.670;6.184;2022-09-12T08:19:00;98941.28;;;23.84;100.00
50123;BME280;36021;48.670;6.184;2022-09-12T08:21:27;98934.81;;;27.36;100.00
50123;BME280;36021;48.670;6.184;2022-09-12T08:23:54;98932.75;;;29.33;100.00
50123;BME280;36021;48.670;6.184;2022-09-12T08:26:20;98934.19;;;30.66;100.00
50123;BME280;36021;48.670;6.184;2022-09-12T08:28:48;98941.06;;;29.85;100.00
50123;BME280;36021;48.670;6.184;2022-09-12T08:31:15;98941.75;;;27.21;100.00
50123;BME280;36021;48.670;6.184;2022-09-12T08:33:40;98947.00;;;26.41;100.00
50123;BME280;36021;48.670;6.184;2022-09-12T08:36:10;98953.97;;;23.11;100.00
50123;BME280;36021;48.670;6.184;2022-09-12T08:38:37;98946.66;;;22.58;100.00
50123;BME280;36021;48.670;6.184;2022-09-12T08:49:08;98968.13;;;20.27;100.00
50123;BME280;36021;48.670;6.184;2022-09-12T08:51:36;98964.78;;;19.94;100.00
50123;BME280;36021;48.670;6.184;2022-09-12T08:54:03;98962.06;;;19.82;100.00
50123;BME280;36021;48.670;6.184;2022-09-12T08:56:35;98967.84;;;19.89;100.00
50123;BME280;36021;48.670;6.184;2022-09-12T08:59:01;98968.91;;;19.84;100.00
50123;BME280;36021;48.670;6.184;2022-09-12T09:01:31;98979.34;;;19.32;100.00
50123;BME280;36021;48.670;6.184;2022-09-12T09:09:55;98974.63;;;19.20;100.00
50123;BME280;36021;48.670;6.184;2022-09-12T09:12:38;98973.13;;;19.50;100.00
50123;BME280;36021;48.670;6.184;2022-09-12T09:17:59;98969.28;;;19.55;100.00
50123;BME280;36021;48.670;6.184;2022-09-12T09:23:12;98959.44;;;19.73;100.00
50123;BME280;36021;48.670;6.184;2022-09-12T09:28:24;98953.47;;;19.74;100.00
50123;BME280;36021;48.670;6.184;2022-09-12T09:30:50;98953.31;;;19.83;100.00
50123;BME280;36021;48.670;6.184;2022-09-12T09:33:21;98949.75;;;19.98;100.00
50123;BME280;36021;48.670;6.184;2022-09-12T09:35:52;98948.22;;;20.16;100.00
50123;BME280;36021;48.670;6.184;2022-09-12T09:43:23;98949.09;;;20.48;100.00
50123;BME280;36021;48.670;6.184;2022-09-12T09:45:51;98939.84;;;20.63;100.00
50123;BME280;36021;48.670;6.184;2022-09-12T09:50:46;98936.63;;;20.96;100.00
50123;BME280;36021;48.670;6.184;2022-09-12T09:53:24;98927.00;;;21.13;100.00
50123;BME280;36021;48.670;6.184;2022-09-12T09:55:52;98922.19;;;20.78;100.00
50123;BME280;36021;48.670;6.184;2022-09-12T09:58:31;98911.31;;;20.93;100.00
50123;BME280;36021;48.670;6.184;2022-09-12T10:00:58;98903.81;;;20.81;100.00
50123;BME280;36021;48.670;6.184;2022-09-12T10:03:25;98911.41;;;20.96;100.00
50123;BME280;36021;48.670;6.184;2022-09-12T10:05:53;98905.53;;;20.86;100.00
50123;BME280;36021;48.670;6.184;2022-09-12T10:08:26;98908.56;;;21.12;100.00
50123;BME280;36021;48.670;6.184;2022-09-12T10:11:00;98899.25;;;21.27;100.00
50123;BME280;36021;48.670;6.184;2022-09-12T10:13:40;98902.28;;;21.18;100.00
50123;BME280;36021;48.670;6.184;2022-09-12T10:16:49;98910.63;;;21.34;100.00
50123;BME280;36021;48.670;6.184;2022-09-12T10:18:56;98906.78;;;21.61;100.00
50123;BME280;36021;48.670;6.184;2022-09-12T10:23:50;98909.56;;;21.80;100.00
50123;BME280;36021;48.670;6.184;2022-09-12T10:26:18;98906.53;;;21.89;100.00
50123;BME280;36021;48.670;6.184;2022-09-12T10:28:46;98902.34;;;21.99;100.00
50123;BME280;36021;48.670;6.184;2022-09-12T10:31:15;98902.75;;;22.01;100.00
50123;BME280;36021;48.670;6.184;2022-09-12T10:33:43;98894.41;;;22.27;100.00
50123;BME280;36021;48.670;6.184;2022-09-12T10:36:12;98882.25;;;22.46;100.00
50123;BME280;36021;48.670;6.184;2022-09-12T10:38:38;98882.84;;;22.58;100.00
50123;BME280;36021;48.670;6.184;2022-09-12T10:41:13;98881.28;;;22.83;100.00
50123;BME280;36021;48.670;6.184;2022-09-12T10:43:38;98879.88;;;23.30;100.00
50123;BME280;36021;48.670;6.184;2022-09-12T10:48:44;98875.31;;;24.73;100.00
50123;BME280;36021;48.670;6.184;2022-09-12T10:51:28;98863.59;;;25.39;100.00
50123;BME280;36021;48.670;6.184;2022-09-12T10:53:57;98864.50;;;25.61;100.00
50123;BME280;36021;48.670;6.184;2022-09-12T10:56:28;98858.03;;;28.58;100.00
50123;BME280;36021;48.670;6.184;2022-09-12T11:15:00;98853.56;;;36.13;92.28
50123;BME280;36021;48.670;6.184;2022-09-12T11:17:37;98851.13;;;39.04;86.35
50123;BME280;36021;48.670;6.184;2022-09-12T11:20:13;98847.22;;;40.28;77.40
50123;BME280;36021;48.670;6.184;2022-09-12T11:30:07;98837.13;;;42.05;62.53
50123;BME280;36021;48.670;6.184;2022-09-12T11:40:15;98837.28;;;44.49;54.43
50123;BME280;36021;48.670;6.184;2022-09-12T11:42:48;98835.22;;;44.44;52.80
50123;BME280;36021;48.670;6.184;2022-09-12T11:45:19;98824.28;;;43.50;47.69
50123;BME280;36021;48.670;6.184;2022-09-12T11:47:51;98819.81;;;44.71;46.26
50123;BME280;36021;48.670;6.184;2022-09-12T11:50:27;98810.06;;;46.14;44.67
50123;BME280;36021;48.670;6.184;2022-09-12T11:52:54;98805.84;;;44.36;45.89
50123;BME280;36021;48.670;6.184;2022-09-12T11:55:24;98807.38;;;47.13;46.40
50123;BME280;36021;48.670;6.184;2022-09-12T11:57:53;98800.59;;;46.02;40.81
50123;BME280;36021;48.670;6.184;2022-09-12T12:08:04;98796.34;;;44.02;40.76
50123;BME280;36021;48.670;6.184;2022-09-12T12:13:02;98783.25;;;48.32;40.59
50123;BME280;36021;48.670;6.184;2022-09-12T12:15:28;98780.91;;;47.29;33.14
50123;BME280;36021;48.670;6.184;2022-09-12T12:18:01;98779.66;;;45.68;38.85
50123;BME280;36021;48.670;6.184;2022-09-12T12:20:27;98781.16;;;46.40;42.04
50123;BME280;36021;48.670;6.184;2022-09-12T12:22:53;98777.09;;;47.90;40.14
50123;BME280;36021;48.670;6.184;2022-09-12T12:27:50;98781.75;;;47.62;40.00
50123;BME280;36021;48.670;6.184;2022-09-12T12:33:00;98779.03;;;47.82;37.83
50123;BME280;36021;48.670;6.184;2022-09-12T12:38:02;98771.44;;;44.63;44.66
50123;BME280;36021;48.670;6.184;2022-09-12T12:40:28;98772.19;;;45.37;39.90
50123;BME280;36021;48.670;6.184;2022-09-12T12:55:16;98744.00;;;45.86;41.50
50123;BME280;36021;48.670;6.184;2022-09-12T12:57:50;98748.94;;;46.75;36.11
50123;BME280;36021;48.670;6.184;2022-09-12T13:03:27;98730.03;;;47.00;35.99
50123;BME280;36021;48.670;6.184;2022-09-12T13:08:10;98722.16;;;41.59;41.34
50123;BME280;36021;48.670;6.184;2022-09-12T13:11:00;98715.97;;;45.83;39.69
50123;BME280;36021;48.670;6.184;2022-09-12T13:13:29;98730.69;;;47.31;35.90
50123;BME280;36021;48.670;6.184;2022-09-12T13:15:56;98734.47;;;48.66;33.20
50123;BME280;36021;48.670;6.184;2022-09-12T13:18:32;98729.00;;;48.31;28.74
50123;BME280;36021;48.670;6.184;2022-09-12T13:23:29;98720.06;;;47.65;32.88
50123;BME280;36021;48.670;6.184;2022-09-12T13:25:56;98712.16;;;46.42;31.49
50123;BME280;36021;48.670;6.184;2022-09-12T13:28:22;98713.69;;;43.81;33.76
50123;BME280;36021;48.670;6.184;2022-09-12T13:30:55;98705.38;;;42.00;38.46
50123;BME280;36021;48.670;6.184;2022-09-12T13:33:26;98705.47;;;43.74;46.14
50123;BME280;36021;48.670;6.184;2022-09-12T13:35:59;98693.66;;;42.63;42.32
50123;BME280;36021;48.670;6.184;2022-09-12T13:41:06;98698.59;;;43.44;37.69
50123;BME280;36021;48.670;6.184;2022-09-12T13:43:39;98698.59;;;43.94;37.53
50123;BME280;36021;48.670;6.184;2022-09-12T13:46:06;98698.84;;;44.24;37.09
50123;BME280;36021;48.670;6.184;2022-09-12T13:48:32;98698.09;;;43.62;36.38
50123;BME280;36021;48.670;6.184;2022-09-12T13:50:59;98694.47;;;45.16;43.01
50123;BME280;36021;48.670;6.184;2022-09-12T13:53:26;98687.44;;;44.31;34.59
50123;BME280;36021;48.670;6.184;2022-09-12T13:55:55;98689.69;;;45.53;31.51
50123;BME280;36021;48.670;6.184;2022-09-12T14:03:29;98663.44;;;44.77;34.93
50123;BME280;36021;48.670;6.184;2022-09-12T14:06:14;98674.22;;;46.24;33.84
50123;BME280;36021;48.670;6.184;2022-09-12T14:08:42;98671.91;;;44.18;35.20
50123;BME280;36021;48.670;6.184;2022-09-12T14:11:08;98659.47;;;44.80;38.78
50123;BME280;36021;48.670;6.184;2022-09-12T14:13:35;98661.38;;;45.84;34.66
50123;BME280;36021;48.670;6.184;2022-09-12T14:16:03;98653.94;;;45.83;33.24
50123;BME280;36021;48.670;6.184;2022-09-12T14:18:32;98659.41;;;44.28;35.81
50123;BME280;36021;48.670;6.184;2022-09-12T14:21:23;98670.25;;;44.28;34.67
50123;BME280;36021;48.670;6.184;2022-09-12T14:23:50;98659.09;;;44.43;46.14
50123;BME280;36021;48.670;6.184;2022-09-12T14:26:17;98651.28;;;41.86;38.36
50123;BME280;36021;48.670;6.184;2022-09-12T14:28:43;98645.03;;;40.53;42.17
50123;BME280;36021;48.670;6.184;2022-09-12T14:33:50;98635.13;;;42.17;39.85
50123;BME280;36021;48.670;6.184;2022-09-12T14:38:49;98636.03;;;43.65;36.73
50123;BME280;36021;48.670;6.184;2022-09-12T14:41:21;98628.72;;;42.55;41.20
50123;BME280;36021;48.670;6.184;2022-09-12T14:43:49;98619.69;;;40.94;46.43
50123;BME280;36021;48.670;6.184;2022-09-12T14:46:16;98622.19;;;42.71;41.38
50123;BME280;36021;48.670;6.184;2022-09-12T14:48:53;98625.19;;;43.38;38.09
50123;BME280;36021;48.670;6.184;2022-09-12T14:51:32;98626.50;;;43.03;38.31
50123;BME280;36021;48.670;6.184;2022-09-12T14:53:59;98614.28;;;42.66;39.12
50123;BME280;36021;48.670;6.184;2022-09-12T14:56:43;98615.19;;;42.30;40.93
50123;BME280;36021;48.670;6.184;2022-09-12T15:04:44;98607.94;;;41.66;42.28
50123;BME280;36021;48.670;6.184;2022-09-12T15:09:40;98607.91;;;39.71;46.18
50123;BME280;36021;48.670;6.184;2022-09-12T15:12:08;98609.97;;;40.46;48.82
50123;BME280;36021;48.670;6.184;2022-09-12T15:14:34;98613.25;;;39.14;46.69
50123;BME280;36021;48.670;6.184;2022-09-12T15:17:00;98608.06;;;39.18;50.70
50123;BME280;36021;48.670;6.184;2022-09-12T15:19:26;98603.59;;;38.73;51.52
50123;BME280;36021;48.670;6.184;2022-09-12T15:21:51;98603.75;;;38.17;53.55
50123;BME280;36021;48.670;6.184;2022-09-12T15:24:17;98604.97;;;37.77;55.00
50123;BME280;36021;48.670;6.184;2022-09-12T15:26:42;98594.38;;;36.58;57.96
50123;BME280;36021;48.670;6.184;2022-09-12T15:29:10;98590.94;;;35.68;64.66
50123;BME280;36021;48.670;6.184;2022-09-12T15:31:35;98592.25;;;36.03;63.17
50123;BME280;36021;48.670;6.184;2022-09-12T15:34:05;98587.16;;;36.53;61.43
50123;BME280;36021;48.670;6.184;2022-09-12T15:36:31;98584.00;;;36.51;59.22
50123;BME280;36021;48.670;6.184;2022-09-12T15:38:57;98584.28;;;36.80;59.31
50123;BME280;36021;48.670;6.184;2022-09-12T15:41:36;98590.63;;;35.75;62.01
50123;BME280;36021;48.670;6.184;2022-09-12T15:44:05;98587.94;;;35.72;61.14
50123;BME280;36021;48.670;6.184;2022-09-12T15:46:32;98585.09;;;35.41;62.92
50123;BME280;36021;48.670;6.184;2022-09-12T15:48:58;98589.88;;;35.44;63.03
50123;BME280;36021;48.670;6.184;2022-09-12T15:51:23;98583.13;;;34.24;65.69
50123;BME280;36021;48.670;6.184;2022-09-12T15:53:49;98579.81;;;34.47;68.82